Time;durP1;ratioP1;P1;durP2;ratioP2;P2;SDS_P1;SDS_P2;PMS_P1;PMS_P2;Temp;Humidity;BMP_temperature;BMP_pressure;BME280_temperature;BME280_humidity;BME280_pressure;Samples;Min_cycle;Max_cycle;Signal;HPM_P1;HPM_P2
2022/10/03 00:02:16;;;;;;;9.47;6.20;;;;;;;12.67;100.00;94685.03;5057308;28;20251;-77
2022/10/03 00:04:53;;;;;;;12.73;6.10;;;;;;;12.63;100.00;94679.50;5058186;28;20218;-77
2022/10/03 00:07:39;;;;;;;10.07;6.27;;;;;;;12.65;100.00;94680.03;5063383;28;20209;-78
2022/10/03 00:10:21;;;;;;;10.57;6.23;;;;;;;12.57;100.00;94664.75;5054190;28;20202;-76
2022/10/03 00:13:04;;;;;;;9.50;6.07;;;;;;;12.61;100.00;94672.91;5060757;28;20292;-77
2022/10/03 00:15:39;;;;;;;11.00;5.90;;;;;;;12.49;100.00;94654.69;5056240;28;20201;-77
2022/10/03 00:18:18;;;;;;;9.70;6.17;;;;;;;12.55;100.00;94661.59;5053296;28;20228;-78
2022/10/03 00:20:54;;;;;;;10.03;5.73;;;;;;;12.49;100.00;94650.28;5052709;28;20205;-77
2022/10/03 00:23:34;;;;;;;10.80;5.60;;;;;;;12.53;100.00;94661.00;5055479;28;20205;-78
2022/10/03 00:29:00;;;;;;;9.97;5.30;;;;;;;12.42;100.00;94647.00;5058861;28;20292;-79
2022/10/03 00:31:41;;;;;;;12.20;5.20;;;;;;;12.29;100.00;94662.88;5054464;28;20201;-78
2022/10/03 00:34:21;;;;;;;7.63;4.90;;;;;;;12.16;100.00;94655.28;5058755;28;20278;-78
2022/10/03 00:37:00;;;;;;;8.57;4.63;;;;;;;12.09;100.00;94656.44;5050623;28;20237;-78
2022/10/03 00:39:41;;;;;;;10.00;5.47;;;;;;;12.12;100.00;94653.38;5056757;28;20576;-78
2022/10/03 00:42:48;;;;;;;7.93;5.50;;;;;;;12.08;100.00;94654.81;5059974;28;20201;-78
2022/10/03 00:45:49;;;;;;;7.27;4.57;;;;;;;12.08;100.00;94658.22;5066563;28;20640;-79
2022/10/03 00:48:43;;;;;;;6.93;4.60;;;;;;;12.11;100.00;94662.19;5055894;28;20241;-78
2022/10/03 00:51:34;;;;;;;11.33;4.70;;;;;;;12.13;100.00;94660.94;5017665;28;20675;-80
2022/10/03 00:54:22;;;;;;;12.57;5.53;;;;;;;12.12;100.00;94656.75;5057694;28;20699;-78
2022/10/03 00:57:10;;;;;;;6.90;4.63;;;;;;;12.08;100.00;94663.44;5061789;28;20216;-79
2022/10/03 00:59:54;;;;;;;12.33;5.43;;;;;;;12.06;100.00;94662.88;5059118;28;20213;-77
2022/10/03 01:02:36;;;;;;;9.20;4.90;;;;;;;12.10;100.00;94650.16;5057968;28;20213;-78
2022/10/03 01:05:16;;;;;;;10.80;5.20;;;;;;;12.10;100.00;94647.56;5058104;28;20208;-79
2022/10/03 01:08:16;;;;;;;9.73;5.07;;;;;;;12.08;100.00;94641.81;5066462;28;20205;-78
2022/10/03 01:10:53;;;;;;;10.30;5.03;;;;;;;12.10;100.00;94637.94;5063372;28;20205;-78
2022/10/03 01:13:32;;;;;;;7.83;4.57;;;;;;;12.17;100.00;94636.03;5059921;28;21306;-78
2022/10/03 01:16:12;;;;;;;6.47;3.50;;;;;;;12.15;100.00;94634.69;5065232;28;20289;-79
2022/10/03 01:18:51;;;;;;;5.93;3.50;;;;;;;12.12;100.00;94633.28;5057643;28;20282;-79
2022/10/03 01:21:33;;;;;;;7.03;4.30;;;;;;;12.06;100.00;94626.41;5052405;28;20943;-79
2022/10/03 01:24:34;;;;;;;5.87;3.80;;;;;;;12.04;100.00;94631.03;5061955;28;20202;-80
2022/10/03 01:27:04;;;;;;;10.30;4.73;;;;;;;12.03;100.00;94618.25;5059206;28;20243;-79
2022/10/03 01:32:31;;;;;;;7.10;4.33;;;;;;;12.04;100.00;94618.00;5064401;28;20198;-79
2022/10/03 01:35:09;;;;;;;6.30;4.20;;;;;;;12.04;100.00;94620.63;5060062;28;20730;-79
2022/10/03 01:37:43;;;;;;;5.30;3.73;;;;;;;12.03;100.00;94626.06;5058098;28;20691;-79
2022/10/03 01:40:22;;;;;;;8.63;5.80;;;;;;;11.99;100.00;94623.13;5058617;28;20201;-79
2022/10/03 01:43:01;;;;;;;6.23;4.37;;;;;;;11.91;100.00;94629.47;5060560;28;20981;-79
2022/10/03 01:45:39;;;;;;;10.67;4.40;;;;;;;11.93;100.00;94631.84;5060826;28;20197;-79
2022/10/03 01:48:11;;;;;;;7.53;4.10;;;;;;;11.87;100.00;94623.13;5052148;28;20194;-79
2022/10/03 01:50:48;;;;;;;6.07;3.83;;;;;;;11.82;100.00;94617.81;5059682;28;20979;-79
2022/10/03 01:53:26;;;;;;;4.90;3.97;;;;;;;11.74;100.00;94615.53;5055393;28;20200;-79
2022/10/03 01:56:03;;;;;;;5.77;3.60;;;;;;;11.68;100.00;94613.00;5063858;28;20204;-79
2022/10/03 01:58:40;;;;;;;9.60;3.67;;;;;;;11.64;100.00;94610.06;5061740;28;20221;-79
2022/10/03 02:01:19;;;;;;;7.97;4.03;;;;;;;11.55;100.00;94621.81;5058263;28;20210;-78
2022/10/03 02:03:55;;;;;;;7.20;3.80;;;;;;;11.47;100.00;94616.13;5058260;28;20202;-77
2022/10/03 02:06:32;;;;;;;7.40;3.80;;;;;;;11.37;100.00;94599.25;5053618;28;20201;-77
2022/10/03 02:09:08;;;;;;;6.93;3.60;;;;;;;11.46;100.00;94609.38;5058854;28;20201;-79
2022/10/03 02:11:39;;;;;;;10.23;4.00;;;;;;;11.56;100.00;94607.00;5059853;28;20203;-78
2022/10/03 02:14:20;;;;;;;10.03;3.80;;;;;;;11.58;100.00;94602.34;5059349;28;20209;-78
2022/10/03 02:16:59;;;;;;;8.63;4.07;;;;;;;11.60;100.00;94611.50;5059785;28;20613;-77
2022/10/03 02:19:29;;;;;;;11.10;3.77;;;;;;;11.40;100.00;94608.44;5061444;28;20207;-77
2022/10/03 02:21:59;;;;;;;5.73;3.87;;;;;;;11.37;100.00;94601.88;5055968;28;20198;-77
2022/10/03 02:24:46;;;;;;;6.87;4.10;;;;;;;11.38;100.00;94616.47;5056244;28;20578;-77
2022/10/03 02:27:33;;;;;;;10.10;3.80;;;;;;;11.35;100.00;94611.72;5059415;28;20205;-77
2022/10/03 02:30:13;;;;;;;9.70;4.27;;;;;;;11.43;100.00;94615.03;5051194;28;20204;-77
2022/10/03 02:33:32;;;;;;;9.87;3.67;;;;;;;11.38;100.00;94608.66;5059105;28;20205;-77
2022/10/03 02:36:48;;;;;;;8.77;4.17;;;;;;;11.45;100.00;94611.19;5040928;28;20255;-77
2022/10/03 02:40:02;;;;;;;7.07;4.30;;;;;;;11.40;100.00;94619.63;5002929;28;21670;-77
2022/10/03 02:42:56;;;;;;;13.70;4.60;;;;;;;11.44;100.00;94616.59;4987098;28;20229;-78
2022/10/03 02:46:00;;;;;;;8.80;4.30;;;;;;;11.44;100.00;94612.19;5057707;28;20689;-78
2022/10/03 02:49:05;;;;;;;7.33;3.80;;;;;;;11.44;100.00;94616.59;5050336;28;20205;-77
2022/10/03 02:52:10;;;;;;;7.37;3.97;;;;;;;11.36;100.00;94626.31;5053017;28;20268;-77
2022/10/03 02:55:05;;;;;;;5.67;3.70;;;;;;;11.37;100.00;94616.69;5060655;28;20201;-77
2022/10/03 02:58:21;;;;;;;6.70;4.00;;;;;;;11.40;100.00;94621.44;5052661;28;20229;-77
2022/10/03 03:01:18;;;;;;;5.90;3.30;;;;;;;11.46;100.00;94617.94;5054746;28;20698;-76
2022/10/03 03:04:15;;;;;;;9.90;3.73;;;;;;;11.50;100.00;94607.88;5059033;28;20219;-76
2022/10/03 03:07:11;;;;;;;13.33;4.03;;;;;;;11.57;100.00;94605.97;5055940;28;20950;-76
2022/10/03 03:10:12;;;;;;;8.83;4.13;;;;;;;11.55;100.00;94611.41;5061251;28;20207;-77
2022/10/03 03:13:11;;;;;;;9.70;3.97;;;;;;;11.63;100.00;94610.28;5061981;28;20212;-77
2022/10/03 03:16:26;;;;;;;6.87;4.00;;;;;;;11.63;100.00;94613.66;5054552;28;20232;-78
2022/10/03 03:19:05;;;;;;;7.70;3.93;;;;;;;11.60;100.00;94610.75;5062032;28;20222;-76
2022/10/03 03:21:41;;;;;;;11.00;4.10;;;;;;;11.63;100.00;94605.84;5054719;28;20206;-76
2022/10/03 03:24:26;;;;;;;10.10;5.07;;;;;;;11.60;100.00;94606.31;5053990;28;20201;-74
2022/10/03 03:27:15;;;;;;;9.80;5.23;;;;;;;11.55;100.00;94594.97;5062205;28;20200;-73
2022/10/03 03:29:50;;;;;;;12.90;5.13;;;;;;;11.43;100.00;94600.19;5059824;28;20206;-74
2022/10/03 03:32:30;;;;;;;17.83;8.83;;;;;;;11.45;100.00;94603.38;5059419;28;20209;-74
2022/10/03 03:35:06;;;;;;;16.50;9.70;;;;;;;11.40;100.00;94598.03;5060304;28;20197;-74
2022/10/03 03:37:42;;;;;;;17.03;9.70;;;;;;;11.36;100.00;94609.91;5059980;28;20213;-74
2022/10/03 03:40:31;;;;;;;15.13;9.30;;;;;;;11.36;100.00;94595.09;5060640;28;20194;-74
2022/10/03 03:43:11;;;;;;;13.63;8.90;;;;;;;11.35;100.00;94590.09;5058057;28;20664;-72
2022/10/03 03:45:50;;;;;;;12.57;8.87;;;;;;;11.35;100.00;94597.91;5056096;28;20201;-75
2022/10/03 03:49:06;;;;;;;14.97;6.60;;;;;;;11.19;100.00;94588.16;5060000;28;20750;-75
2022/10/03 03:51:42;;;;;;;16.53;8.40;;;;;;;11.02;100.00;94587.22;5011487;28;20235;-75
2022/10/03 03:55:14;;;;;;;12.37;7.20;;;;;;;11.07;100.00;94593.31;5058736;28;20201;-74
2022/10/03 03:58:00;;;;;;;10.13;5.27;;;;;;;11.11;100.00;94585.88;4995997;28;20234;-74
2022/10/03 04:00:37;;;;;;;9.60;6.03;;;;;;;11.17;100.00;94585.75;5059099;28;20201;-74
2022/10/03 04:03:21;;;;;;;12.27;7.03;;;;;;;11.14;100.00;94578.41;5061755;28;20201;-72
2022/10/03 04:06:06;;;;;;;12.37;7.10;;;;;;;11.13;100.00;94578.63;5065617;28;20302;-72
2022/10/03 04:08:58;;;;;;;12.87;8.27;;;;;;;11.25;100.00;94567.25;5059914;28;20197;-73
2022/10/03 04:11:33;;;;;;;15.77;8.73;;;;;;;11.34;100.00;94571.09;5052302;28;20637;-77
2022/10/03 04:14:23;;;;;;;20.10;9.57;;;;;;;11.38;100.00;94571.44;5056384;28;20212;-73
2022/10/03 04:20:12;;;;;;;31.50;9.87;;;;;;;11.40;100.00;94567.59;5061200;28;20232;-74
2022/10/03 04:22:59;;;;;;;21.07;9.77;;;;;;;11.40;100.00;94561.59;5064387;28;20193;-77
2022/10/03 04:25:57;;;;;;;17.73;9.50;;;;;;;11.50;100.00;94569.66;5059095;28;20213;-76
2022/10/03 04:28:38;;;;;;;19.83;11.67;;;;;;;11.55;100.00;94574.97;5056493;28;20182;-73
2022/10/03 04:31:22;;;;;;;27.30;11.50;;;;;;;11.58;100.00;94568.50;5062435;28;20201;-74
2022/10/03 04:34:06;;;;;;;21.63;10.57;;;;;;;11.65;100.00;94561.41;5067979;28;20232;-73
2022/10/03 04:36:51;;;;;;;22.50;10.97;;;;;;;11.66;100.00;94568.19;5059496;28;20252;-76
2022/10/03 04:39:27;;;;;;;22.73;9.60;;;;;;;11.66;100.00;94571.56;5058465;28;20592;-74
2022/10/03 04:41:58;;;;;;;26.57;10.17;;;;;;;11.66;100.00;94565.59;5055728;28;20202;-74
2022/10/03 04:44:50;;;;;;;32.27;9.17;;;;;;;11.69;100.00;94565.94;5059507;28;20306;-77
2022/10/03 04:47:26;;;;;;;20.67;9.47;;;;;;;11.59;100.00;94576.09;5040568;28;20277;-84
2022/10/03 04:49:58;;;;;;;22.53;9.60;;;;;;;11.68;100.00;94564.34;5054559;28;20576;-83
2022/10/03 04:52:38;;;;;;;27.00;9.77;;;;;;;11.73;100.00;94563.69;5059371;28;20213;-77
2022/10/03 04:55:21;;;;;;;17.00;7.77;;;;;;;11.75;100.00;94559.84;5058974;28;20228;-75
2022/10/03 04:57:54;;;;;;;19.97;6.87;;;;;;;11.79;100.00;94563.56;5067295;28;20311;-75
2022/10/03 05:00:24;;;;;;;17.13;6.13;;;;;;;11.83;100.00;94569.13;5065818;28;20223;-75
2022/10/03 05:03:01;;;;;;;14.43;5.60;;;;;;;11.90;100.00;94570.59;5060883;28;20202;-75
2022/10/03 05:06:00;;;;;;;25.37;7.37;;;;;;;11.94;100.00;94563.91;5061870;28;20263;-75
2022/10/03 05:08:44;;;;;;;21.37;7.17;;;;;;;12.00;100.00;94566.63;5003404;28;20191;-76
2022/10/03 05:11:22;;;;;;;19.23;6.67;;;;;;;12.05;100.00;94570.13;5048456;28;20201;-76
2022/10/03 05:14:01;;;;;;;26.17;9.20;;;;;;;12.09;100.00;94562.66;5061320;28;20206;-76
2022/10/03 05:16:49;;;;;;;18.80;8.60;;;;;;;12.07;100.00;94565.47;5048837;28;20693;-76
2022/10/03 05:19:40;;;;;;;26.87;8.60;;;;;;;12.04;100.00;94568.53;5037244;28;20229;-76
2022/10/03 05:22:15;;;;;;;28.33;9.33;;;;;;;12.10;100.00;94574.63;5061827;28;20571;-74
2022/10/03 05:24:50;;;;;;;22.57;7.80;;;;;;;12.09;100.00;94567.84;5059850;28;20220;-74
2022/10/03 05:27:26;;;;;;;23.63;8.57;;;;;;;12.08;100.00;94558.44;5062632;28;20328;-74
2022/10/03 05:30:01;;;;;;;27.20;7.80;;;;;;;12.11;100.00;94558.78;5061715;28;20201;-74
2022/10/03 05:32:40;;;;;;;17.63;6.97;;;;;;;12.20;100.00;94554.81;5061444;28;20205;-73
2022/10/03 05:35:24;;;;;;;19.73;6.80;;;;;;;12.30;100.00;94547.19;5058630;28;20194;-74
2022/10/03 05:38:32;;;;;;;21.80;7.73;;;;;;;12.31;100.00;94538.34;5056966;28;20288;-73
2022/10/03 05:41:08;;;;;;;19.33;8.10;;;;;;;12.27;100.00;94526.78;5061598;28;20292;-74
2022/10/03 05:43:57;;;;;;;24.17;7.30;;;;;;;12.15;100.00;94536.44;5064050;28;20204;-74
2022/10/03 05:46:52;;;;;;;18.67;7.33;;;;;;;12.19;100.00;94547.22;5054438;28;20214;-73
2022/10/03 05:49:33;;;;;;;9.50;5.90;;;;;;;12.24;100.00;94544.69;5055396;28;20256;-73
2022/10/03 05:52:20;;;;;;;13.47;6.10;;;;;;;12.36;100.00;94555.88;5011066;28;20199;-73
2022/10/03 05:55:08;;;;;;;9.73;5.57;;;;;;;12.50;100.00;94552.78;5014990;28;20772;-74
2022/10/03 05:58:00;;;;;;;17.03;5.57;;;;;;;12.65;100.00;94554.09;5012109;28;20203;-73
2022/10/03 06:00:38;;;;;;;13.83;5.43;;;;;;;12.72;100.00;94552.94;5011827;28;20203;-79
2022/10/03 06:03:32;;;;;;;10.73;5.27;;;;;;;12.83;100.00;94559.13;5013706;28;20207;-73
2022/10/03 06:06:16;;;;;;;15.93;5.40;;;;;;;12.86;100.00;94561.28;5011165;28;20218;-73
2022/10/03 06:09:31;;;;;;;10.67;5.17;;;;;;;12.94;100.00;94566.91;5020029;28;20246;-74
2022/10/03 06:12:04;;;;;;;16.63;5.50;;;;;;;12.86;100.00;94572.50;4953235;28;20693;-74
2022/10/03 06:14:48;;;;;;;14.03;6.47;;;;;;;12.95;100.00;94565.09;5016124;28;20953;-73
2022/10/03 06:17:39;;;;;;;15.47;6.13;;;;;;;13.04;100.00;94579.34;5014284;28;20209;-74
2022/10/03 06:20:26;;;;;;;15.87;6.33;;;;;;;13.14;100.00;94583.94;5010209;28;20247;-73
2022/10/03 06:23:19;;;;;;;13.30;5.67;;;;;;;13.15;100.00;94581.13;5014260;28;20215;-73
2022/10/03 06:26:13;;;;;;;20.83;6.90;;;;;;;13.18;100.00;94572.81;5011670;28;20218;-74
2022/10/03 06:29:04;;;;;;;17.27;7.43;;;;;;;13.29;100.00;94579.78;5014050;28;20646;-74
2022/10/03 06:32:03;;;;;;;17.07;5.80;;;;;;;13.40;100.00;94578.13;5011704;28;20210;-74
2022/10/03 06:35:14;;;;;;;15.00;6.20;;;;;;;13.51;100.00;94572.03;5011734;28;20214;-74
2022/10/03 06:38:15;;;;;;;12.87;5.83;;;;;;;13.56;100.00;94578.13;5013707;28;20199;-74
2022/10/03 06:41:26;;;;;;;22.43;7.33;;;;;;;13.65;100.00;94579.31;5016737;28;20211;-74
2022/10/03 06:44:27;;;;;;;13.30;6.17;;;;;;;13.61;100.00;94585.25;4992082;28;20235;-76
2022/10/03 06:47:26;;;;;;;13.17;5.77;;;;;;;13.64;100.00;94584.78;5012228;28;20215;-77
2022/10/03 06:50:27;;;;;;;15.50;5.53;;;;;;;13.63;100.00;94581.38;5014421;28;20748;-75
2022/10/03 06:53:20;;;;;;;14.57;5.57;;;;;;;13.71;100.00;94584.63;5058038;28;20206;-76
2022/10/03 06:56:22;;;;;;;11.27;4.93;;;;;;;13.76;100.00;94592.53;5058128;28;20228;-76
2022/10/03 06:59:19;;;;;;;12.47;5.17;;;;;;;13.81;100.00;94597.81;5043871;28;20236;-77
2022/10/03 07:02:21;;;;;;;10.80;5.20;;;;;;;13.91;100.00;94608.44;5048212;28;20210;-77
2022/10/03 07:05:18;;;;;;;11.23;4.80;;;;;;;13.97;100.00;94617.91;5034973;28;20701;-77
2022/10/03 07:08:14;;;;;;;15.07;6.87;;;;;;;13.73;100.00;94633.00;5062263;28;20324;-72
2022/10/03 07:10:59;;;;;;;20.57;9.37;;;;;;;13.61;100.00;94627.84;5053116;28;20205;-81
2022/10/03 07:13:49;;;;;;;18.13;9.53;;;;;;;13.48;100.00;94633.34;5052415;28;20209;-75
2022/10/03 07:16:42;;;;;;;22.30;9.40;;;;;;;13.47;100.00;94634.41;5053296;28;20194;-75
2022/10/03 07:19:43;;;;;;;18.23;8.20;;;;;;;13.47;100.00;94654.50;5057104;28;20228;-75
2022/10/03 07:22:38;;;;;;;13.17;7.50;;;;;;;13.42;100.00;94657.03;5055939;28;20675;-75
2022/10/03 07:25:36;;;;;;;18.70;8.10;;;;;;;13.33;100.00;94661.81;5055550;28;20205;-75
2022/10/03 07:28:28;;;;;;;14.23;7.00;;;;;;;13.24;100.00;94671.06;5055889;28;20197;-76
2022/10/03 07:31:07;;;;;;;20.90;7.27;;;;;;;13.12;100.00;94657.25;5062513;28;20217;-79
2022/10/03 07:34:06;;;;;;;20.07;6.93;;;;;;;13.08;100.00;94662.16;5057475;28;20645;-79
2022/10/03 07:39:59;;;;;;;16.93;6.57;;;;;;;12.63;100.00;94673.47;5028365;28;20229;-82
2022/10/03 07:43:07;;;;;;;11.20;6.13;;;;;;;12.59;100.00;94687.97;5064481;28;20204;-82
2022/10/03 07:45:38;;;;;;;12.47;6.93;;;;;;;12.58;100.00;94692.44;5059477;28;20286;-81
2022/10/03 07:48:51;;;;;;;15.13;6.17;;;;;;;12.58;100.00;94682.00;5052865;28;20202;-79
2022/10/03 07:51:29;;;;;;;17.13;10.50;;;;;;;12.69;100.00;94688.19;5061285;28;20241;-79
2022/10/03 07:54:29;;;;;;;24.30;16.17;;;;;;;12.76;100.00;94679.22;5058191;28;20205;-79
2022/10/03 07:57:37;;;;;;;21.57;11.67;;;;;;;12.83;100.00;94674.69;5054533;28;20205;-81
2022/10/03 08:00:15;;;;;;;20.87;13.90;;;;;;;12.84;100.00;94673.63;5061205;28;20246;-82
2022/10/03 08:03:28;;;;;;;31.00;18.23;;;;;;;12.99;100.00;94675.75;5053999;28;20209;-81
2022/10/03 08:06:25;;;;;;;28.40;21.67;;;;;;;13.01;100.00;94678.94;5063043;28;20216;-81
2022/10/03 08:09:24;;;;;;;23.63;15.77;;;;;;;13.00;100.00;94677.34;5050290;28;20202;-83
2022/10/03 08:12:17;;;;;;;11.80;7.60;;;;;;;12.83;100.00;94684.31;5062736;28;20225;-83
2022/10/03 08:14:56;;;;;;;8.10;4.10;;;;;;;12.82;100.00;94686.13;5060434;28;20201;-81
2022/10/03 08:18:07;;;;;;;7.47;3.77;;;;;;;12.85;100.00;94688.28;5061148;28;20259;-80
2022/10/03 08:20:43;;;;;;;11.20;5.67;;;;;;;12.89;100.00;94696.44;5058905;28;20614;-84
2022/10/03 08:23:48;;;;;;;10.03;5.60;;;;;;;12.99;100.00;94696.63;5054439;28;20230;-83
2022/10/03 08:26:27;;;;;;;10.50;5.00;;;;;;;13.12;100.00;94696.41;5059043;28;20584;-74
2022/10/03 08:29:26;;;;;;;13.33;5.40;;;;;;;13.19;100.00;94699.66;5052553;28;20246;-77
2022/10/03 08:32:26;;;;;;;10.30;4.40;;;;;;;13.23;100.00;94695.56;5055465;28;20889;-75
2022/10/03 08:35:21;;;;;;;7.13;5.20;;;;;;;13.32;100.00;94703.81;5058915;28;20205;-90
2022/10/03 08:38:18;;;;;;;6.83;5.10;;;;;;;13.38;100.00;94700.28;5050717;28;20217;-80
2022/10/03 08:41:26;;;;;;;5.17;3.80;;;;;;;13.43;100.00;94690.72;5058399;28;20224;-79
2022/10/03 08:44:17;;;;;;;9.93;6.67;;;;;;;13.60;100.00;94711.63;5056466;28;20663;-79
2022/10/03 08:47:19;;;;;;;21.47;14.47;;;;;;;13.61;100.00;94697.56;5051443;28;20206;-80
2022/10/03 08:50:24;;;;;;;21.07;14.63;;;;;;;13.75;100.00;94706.66;5010790;28;20201;-80
2022/10/03 08:53:16;;;;;;;17.40;12.97;;;;;;;13.85;100.00;94706.06;5031783;28;20213;-79
2022/10/03 08:55:58;;;;;;;15.37;8.70;;;;;;;13.86;100.00;94705.00;5053547;28;20202;-74
2022/10/03 08:59:19;;;;;;;11.00;5.97;;;;;;;13.86;100.00;94705.00;5058178;28;20691;-81
2022/10/03 09:02:16;;;;;;;7.87;4.30;;;;;;;13.88;100.00;94708.97;5029082;28;20210;-78
2022/10/03 09:05:19;;;;;;;7.77;4.83;;;;;;;13.97;100.00;94709.38;5011754;28;20210;-80
2022/10/03 09:08:15;;;;;;;7.60;4.47;;;;;;;14.10;100.00;94706.47;5061397;28;20216;-81
2022/10/03 09:11:17;;;;;;;10.17;4.33;;;;;;;14.23;100.00;94720.00;5060626;28;20218;-82
2022/10/03 09:14:26;;;;;;;4.00;3.57;;;;;;;14.32;100.00;94722.19;5054053;28;20672;-81
2022/10/03 09:17:09;;;;;;;7.97;3.27;;;;;;;14.42;100.00;94712.72;5049033;28;20267;-83
2022/10/03 09:20:19;;;;;;;5.37;3.03;;;;;;;14.39;100.00;94723.66;5063409;28;20598;-83
2022/10/03 09:23:16;;;;;;;3.93;3.13;;;;;;;14.28;100.00;94734.19;5058456;28;20209;-82
2022/10/03 09:26:21;;;;;;;4.93;4.00;;;;;;;14.18;100.00;94717.31;5057437;28;20198;-80
2022/10/03 09:29:08;;;;;;;10.23;4.83;;;;;;;14.24;100.00;94728.63;5063080;28;20198;-83
2022/10/03 09:32:27;;;;;;;4.33;3.40;;;;;;;14.20;100.00;94723.06;5056561;28;20672;-77
2022/10/03 09:35:29;;;;;;;6.33;3.20;;;;;;;14.25;100.00;94724.19;5059160;28;20728;-74
2022/10/03 09:38:26;;;;;;;5.43;4.00;;;;;;;14.25;100.00;94730.22;5064840;28;20211;-83
2022/10/03 09:41:19;;;;;;;7.17;3.20;;;;;;;14.23;100.00;94719.19;5068860;28;20222;-84
2022/10/03 09:44:14;;;;;;;3.53;2.77;;;;;;;14.23;100.00;94722.59;5061726;28;20217;-84
2022/10/03 09:47:22;;;;;;;5.10;3.50;;;;;;;14.17;100.00;94722.75;5059149;28;20198;-85
2022/10/03 09:50:36;;;;;;;5.97;3.20;;;;;;;14.13;100.00;94729.50;4990754;28;20699;-84
2022/10/03 09:53:34;;;;;;;7.20;3.70;;;;;;;14.17;100.00;94730.59;5017649;28;20633;-81
2022/10/03 09:56:29;;;;;;;8.13;3.43;;;;;;;14.36;100.00;94729.38;5058889;28;20206;-84
2022/10/03 09:59:17;;;;;;;5.50;4.40;;;;;;;14.55;100.00;94717.59;5056892;28;20669;-76
2022/10/03 10:01:51;;;;;;;4.40;3.90;;;;;;;14.77;100.00;94718.44;5057469;28;20220;-84
2022/10/03 10:04:49;;;;;;;5.07;3.73;;;;;;;15.00;100.00;94712.19;5058602;28;20205;-84
2022/10/03 10:07:52;;;;;;;6.37;3.03;;;;;;;14.95;98.45;94703.50;5053431;28;20214;-84
2022/10/03 10:10:57;;;;;;;5.60;3.00;;;;;;;14.78;99.49;94698.28;5060907;28;20202;-83
2022/10/03 10:14:02;;;;;;;2.87;2.67;;;;;;;14.75;97.83;94701.38;5062511;28;20684;-82
2022/10/03 10:16:50;;;;;;;2.80;2.60;;;;;;;14.78;96.65;94700.91;5059580;28;20218;-83
2022/10/03 10:19:50;;;;;;;3.87;3.30;;;;;;;14.89;97.74;94712.31;5067603;28;20206;-82
2022/10/03 10:22:55;;;;;;;4.90;3.53;;;;;;;15.04;96.15;94707.25;5062097;28;20914;-83
2022/10/03 10:26:08;;;;;;;4.03;2.83;;;;;;;15.08;93.66;94708.34;5041001;28;20205;-83
2022/10/03 10:29:24;;;;;;;4.37;2.67;;;;;;;15.03;94.27;94716.94;5025544;28;20203;-83
2022/10/03 10:32:26;;;;;;;2.83;2.60;;;;;;;15.01;92.75;94713.75;5056723;28;20217;-83
2022/10/03 10:35:32;;;;;;;2.53;2.30;;;;;;;15.05;92.62;94712.25;5062234;28;20201;-83
2022/10/03 10:38:43;;;;;;;3.03;2.30;;;;;;;15.21;92.42;94728.91;5055012;28;20227;-82
2022/10/03 10:41:50;;;;;;;2.80;2.53;;;;;;;15.37;92.80;94720.22;5050004;28;20225;-83
2022/10/03 10:45:05;;;;;;;2.47;2.10;;;;;;;15.46;90.20;94721.34;5059848;28;20209;-84
2022/10/03 10:48:26;;;;;;;5.33;2.00;;;;;;;15.33;88.72;94713.88;5008413;28;20568;-83
2022/10/03 10:51:22;;;;;;;2.83;2.23;;;;;;;15.33;89.87;94725.13;5061085;28;20238;-83
2022/10/03 10:54:41;;;;;;;3.73;2.30;;;;;;;15.53;88.70;94716.72;5063001;28;20197;-82
2022/10/03 10:57:45;;;;;;;4.53;2.40;;;;;;;15.63;88.69;94716.84;5067235;28;20282;-82
2022/10/03 11:00:26;;;;;;;2.93;2.33;;;;;;;15.51;88.52;94720.63;5061549;28;21296;-83
2022/10/03 11:03:26;;;;;;;2.57;2.37;;;;;;;15.44;89.69;94717.41;5060799;28;20198;-83
2022/10/03 11:06:43;;;;;;;4.10;2.10;;;;;;;15.55;89.45;94727.78;5062434;28;20206;-83
2022/10/03 11:09:44;;;;;;;2.50;2.30;;;;;;;15.87;88.72;94712.09;5053868;28;20201;-84
2022/10/03 11:13:07;;;;;;;4.37;3.20;;;;;;;16.06;88.45;94715.94;5062257;28;20193;-86
2022/10/03 11:16:23;;;;;;;5.67;3.30;;;;;;;16.17;87.67;94716.78;4997293;28;20586;-84
2022/10/03 11:19:33;;;;;;;3.10;2.80;;;;;;;15.87;87.93;94710.25;5018197;28;20700;-82
2022/10/03 11:22:35;;;;;;;3.20;2.90;;;;;;;15.73;89.15;94726.63;5059389;28;20194;-79
2022/10/03 11:25:40;;;;;;;3.60;3.17;;;;;;;15.52;88.52;94730.09;5044108;28;20204;-84
2022/10/03 11:28:49;;;;;;;3.53;3.20;;;;;;;15.58;89.22;94727.28;5022064;28;20237;-85
2022/10/03 11:31:49;;;;;;;5.83;3.33;;;;;;;15.44;87.93;94714.78;5045274;28;20644;-86
2022/10/03 11:34:56;;;;;;;3.87;3.40;;;;;;;15.55;88.73;94717.31;5061624;28;20235;-88
2022/10/03 11:37:39;;;;;;;5.40;4.30;;;;;;;15.40;86.57;94711.06;5060449;28;20693;-84
2022/10/03 11:40:35;;;;;;;6.57;4.70;;;;;;;15.23;87.53;94719.00;5059663;28;20213;-80
2022/10/03 11:43:40;;;;;;;4.87;4.20;;;;;;;15.10;88.87;94704.44;5050127;28;20287;-81
2022/10/03 11:46:22;;;;;;;7.90;4.70;;;;;;;15.21;89.98;94708.75;5055885;28;20656;-79
2022/10/03 11:48:58;;;;;;;8.07;4.30;;;;;;;15.33;89.13;94716.47;5058687;28;20201;-83
2022/10/03 11:51:41;;;;;;;6.47;4.70;;;;;;;15.39;89.73;94712.88;5062117;28;20224;-81
2022/10/03 11:54:20;;;;;;;4.70;4.20;;;;;;;15.43;89.19;94715.81;5062508;28;20299;-81
2022/10/03 11:56:50;;;;;;;6.33;4.07;;;;;;;15.31;89.25;94708.88;5059270;28;20193;-79
2022/10/03 11:59:34;;;;;;;5.80;4.67;;;;;;;15.24;90.79;94705.66;5057965;28;20208;-81
2022/10/03 12:02:28;;;;;;;10.33;4.03;;;;;;;15.25;89.84;94717.72;5056263;28;20202;-81
2022/10/03 12:05:01;;;;;;;5.33;4.60;;;;;;;15.01;90.27;94677.13;5065884;28;20201;-81
2022/10/03 12:10:43;;;;;;;6.50;5.03;;;;;;;15.43;88.06;94700.91;5059174;28;20801;-80
2022/10/03 12:13:15;;;;;;;8.43;6.80;;;;;;;15.42;87.71;94704.53;5061986;28;20197;-84
2022/10/03 12:15:46;;;;;;;6.40;5.43;;;;;;;15.84;85.16;94709.97;5064899;28;20205;-84
2022/10/03 12:18:19;;;;;;;5.23;4.57;;;;;;;16.26;81.20;94715.28;5060234;28;20271;-85
2022/10/03 12:21:09;;;;;;;7.23;4.23;;;;;;;16.89;77.29;94711.78;5059136;28;20299;-84
2022/10/03 12:24:11;;;;;;;4.70;4.20;;;;;;;17.45;73.67;94704.91;5057411;28;20212;-84
2022/10/03 12:26:50;;;;;;;5.97;4.10;;;;;;;18.06;70.40;94717.13;5022665;28;20719;-84
2022/10/03 12:29:19;;;;;;;4.10;3.70;;;;;;;18.49;69.07;94689.50;5054740;28;20200;-86
2022/10/03 12:31:56;;;;;;;3.90;3.60;;;;;;;18.96;68.95;94702.28;5065970;28;20205;-85
2022/10/03 12:34:37;;;;;;;4.40;3.87;;;;;;;19.25;65.47;94700.59;5062695;28;20196;-88
2022/10/03 12:37:33;;;;;;;6.55;4.68;;;;;;;19.82;64.03;94707.19;5061282;28;20642;-85
2022/10/03 12:40:09;;;;;;;6.00;5.40;;;;;;;19.48;61.89;94706.34;5064426;28;20218;-84
2022/10/03 12:42:42;;;;;;;6.72;4.90;;;;;;;20.19;59.85;94709.31;5064244;28;20196;-84
2022/10/03 12:45:25;;;;;;;6.68;5.20;;;;;;;21.06;58.25;94716.16;5054822;28;20213;-86
2022/10/03 12:48:27;;;;;;;5.78;4.25;;;;;;;21.21;56.50;94715.25;5068032;28;20273;-85
2022/10/03 12:51:02;;;;;;;4.47;4.07;;;;;;;21.02;56.67;94711.72;5062646;28;20695;-84
2022/10/03 12:53:40;;;;;;;4.20;3.80;;;;;;;20.13;58.19;94705.91;5060849;28;20197;-87
2022/10/03 12:56:17;;;;;;;4.28;3.92;;;;;;;19.93;59.43;94706.06;5062760;28;20657;-86
2022/10/03 12:59:09;;;;;;;5.65;4.80;;;;;;;19.89;59.58;94699.75;5062243;28;20193;-87
2022/10/03 13:01:52;;;;;;;6.22;4.47;;;;;;;20.30;58.75;94739.84;5053711;28;20268;-85
2022/10/03 13:04:29;;;;;;;4.05;3.65;;;;;;;20.43;56.13;94699.63;5062917;28;20783;-86
2022/10/03 13:07:15;;;;;;;4.35;3.95;;;;;;;20.19;55.90;94699.53;5062969;28;20688;-87
2022/10/03 13:09:59;;;;;;;4.55;3.42;;;;;;;19.80;58.07;94707.44;5064818;28;20205;-82
2022/10/03 13:12:38;;;;;;;4.30;3.90;;;;;;;20.18;58.56;94716.44;5059784;28;20198;-83
2022/10/03 13:15:46;;;;;;;5.13;3.80;;;;;;;20.53;56.55;94701.38;5063809;28;20209;-83
2022/10/03 13:18:30;;;;;;;3.85;3.40;;;;;;;19.65;59.22;94706.78;5066125;28;20206;-84
2022/10/03 13:21:08;;;;;;;5.78;3.42;;;;;;;19.27;61.91;94689.81;5061268;28;20217;-83
2022/10/03 13:23:46;;;;;;;6.03;3.80;;;;;;;19.41;61.69;94701.34;5071189;28;20197;-84